sensor_id;sensor_type;location;lat;lon;timestamp;P1;durP1;ratioP1;P2;durP2;ratioP2
19193;SDS011;9729;52.296;13.260;2023-02-28T00:00:05;16.70;;;9.23;;
19193;SDS011;9729;52.296;13.260;2023-02-28T00:02:36;18.33;;;9.97;;
19193;SDS011;9729;52.296;13.260;2023-02-28T00:05:02;21.27;;;9.97;;
19193;SDS011;9729;52.296;13.260;2023-02-28T00:07:29;20.13;;;10.20;;
19193;SDS011;9729;52.296;13.260;2023-02-28T00:09:56;17.20;;;9.20;;
19193;SDS011;9729;52.296;13.260;2023-02-28T00:12:22;24.37;;;9.60;;
19193;SDS011;9729;52.296;13.260;2023-02-28T00:14:50;21.77;;;10.40;;
19193;SDS011;9729;52.296;13.260;2023-02-28T00:17:17;17.87;;;9.67;;
19193;SDS011;9729;52.296;13.260;2023-02-28T00:19:45;21.13;;;9.73;;
19193;SDS011;9729;52.296;13.260;2023-02-28T00:22:12;23.40;;;9.60;;
19193;SDS011;9729;52.296;13.260;2023-02-28T00:24:40;19.87;;;9.23;;
19193;SDS011;9729;52.296;13.260;2023-02-28T00:27:07;20.07;;;9.77;;
19193;SDS011;9729;52.296;13.260;2023-02-28T00:29:33;16.97;;;9.80;;
19193;SDS011;9729;52.296;13.260;2023-02-28T00:32:01;16.17;;;9.83;;
19193;SDS011;9729;52.296;13.260;2023-02-28T00:34:27;20.83;;;10.33;;
19193;SDS011;9729;52.296;13.260;2023-02-28T00:36:54;17.77;;;9.03;;
19193;SDS011;9729;52.296;13.260;2023-02-28T00:39:20;18.13;;;9.50;;
19193;SDS011;9729;52.296;13.260;2023-02-28T00:41:46;26.50;;;10.20;;
19193;SDS011;9729;52.296;13.260;2023-02-28T00:44:13;18.57;;;9.43;;
19193;SDS011;9729;52.296;13.260;2023-02-28T00:46:39;17.00;;;9.30;;
19193;SDS011;9729;52.296;13.260;2023-02-28T00:49:07;17.00;;;8.80;;
19193;SDS011;9729;52.296;13.260;2023-02-28T00:51:33;20.03;;;9.00;;
19193;SDS011;9729;52.296;13.260;2023-02-28T00:53:59;16.57;;;8.80;;
19193;SDS011;9729;52.296;13.260;2023-02-28T00:56:25;15.57;;;8.87;;
19193;SDS011;9729;52.296;13.260;2023-02-28T00:58:52;19.37;;;10.10;;
19193;SDS011;9729;52.296;13.260;2023-02-28T01:01:18;18.13;;;9.00;;
19193;SDS011;9729;52.296;13.260;2023-02-28T01:03:44;20.43;;;9.67;;
19193;SDS011;9729;52.296;13.260;2023-02-28T01:06:12;16.60;;;9.33;;
19193;SDS011;9729;52.296;13.260;2023-02-28T01:08:39;16.53;;;9.20;;
19193;SDS011;9729;52.296;13.260;2023-02-28T01:11:09;18.47;;;9.17;;
19193;SDS011;9729;52.296;13.260;2023-02-28T01:13:35;24.20;;;8.77;;
19193;SDS011;9729;52.296;13.260;2023-02-28T01:16:02;15.57;;;9.10;;
19193;SDS011;9729;52.296;13.260;2023-02-28T01:18:28;14.60;;;9.07;;
19193;SDS011;9729;52.296;13.260;2023-02-28T01:20:55;22.57;;;9.00;;
19193;SDS011;9729;52.296;13.260;2023-02-28T01:23:23;13.73;;;8.27;;
19193;SDS011;9729;52.296;13.260;2023-02-28T01:25:50;19.03;;;8.77;;
19193;SDS011;9729;52.296;13.260;2023-02-28T01:28:18;15.03;;;8.10;;
19193;SDS011;9729;52.296;13.260;2023-02-28T01:30:47;17.33;;;9.10;;
19193;SDS011;9729;52.296;13.260;2023-02-28T01:33:14;13.20;;;7.90;;
19193;SDS011;9729;52.296;13.260;2023-02-28T01:35:40;20.90;;;8.53;;
19193;SDS011;9729;52.296;13.260;2023-02-28T01:38:07;13.60;;;7.97;;
19193;SDS011;9729;52.296;13.260;2023-02-28T01:40:34;15.03;;;8.07;;
19193;SDS011;9729;52.296;13.260;2023-02-28T01:43:01;15.00;;;7.40;;
19193;SDS011;9729;52.296;13.260;2023-02-28T01:45:28;16.60;;;8.00;;
19193;SDS011;9729;52.296;13.260;2023-02-28T01:47:56;15.50;;;7.70;;
19193;SDS011;9729;52.296;13.260;2023-02-28T01:50:26;14.00;;;8.13;;
19193;SDS011;9729;52.296;13.260;2023-02-28T01:52:55;16.43;;;8.23;;
19193;SDS011;9729;52.296;13.260;2023-02-28T01:55:23;14.17;;;8.10;;
19193;SDS011;9729;52.296;13.260;2023-02-28T01:57:55;17.63;;;7.83;;
19193;SDS011;9729;52.296;13.260;2023-02-28T02:00:23;12.00;;;8.03;;
19193;SDS011;9729;52.296;13.260;2023-02-28T02:02:53;11.33;;;7.43;;
19193;SDS011;9729;52.296;13.260;2023-02-28T02:05:22;13.53;;;6.93;;
19193;SDS011;9729;52.296;13.260;2023-02-28T02:07:51;12.13;;;7.10;;
19193;SDS011;9729;52.296;13.260;2023-02-28T02:10:20;16.13;;;8.43;;
19193;SDS011;9729;52.296;13.260;2023-02-28T02:13:00;14.27;;;7.17;;
19193;SDS011;9729;52.296;13.260;2023-02-28T02:15:34;12.43;;;7.93;;
19193;SDS011;9729;52.296;13.260;2023-02-28T02:18:08;14.27;;;8.03;;
19193;SDS011;9729;52.296;13.260;2023-02-28T02:27:06;14.43;;;6.83;;
19193;SDS011;9729;52.296;13.260;2023-02-28T02:30:10;13.07;;;7.67;;
19193;SDS011;9729;52.296;13.260;2023-02-28T02:35:36;13.37;;;6.63;;
19193;SDS011;9729;52.296;13.260;2023-02-28T02:38:08;15.10;;;7.30;;
19193;SDS011;9729;52.296;13.260;2023-02-28T02:40:37;11.80;;;7.17;;
19193;SDS011;9729;52.296;13.260;2023-02-28T02:43:06;16.03;;;8.37;;
19193;SDS011;9729;52.296;13.260;2023-02-28T02:45:34;9.50;;;6.17;;
19193;SDS011;9729;52.296;13.260;2023-02-28T02:48:05;12.60;;;6.30;;
19193;SDS011;9729;52.296;13.260;2023-02-28T02:50:36;13.13;;;6.90;;
19193;SDS011;9729;52.296;13.260;2023-02-28T02:53:05;10.17;;;6.63;;
19193;SDS011;9729;52.296;13.260;2023-02-28T02:55:33;13.63;;;7.23;;
19193;SDS011;9729;52.296;13.260;2023-02-28T02:58:02;12.53;;;6.67;;
19193;SDS011;9729;52.296;13.260;2023-02-28T03:00:31;11.73;;;6.47;;
19193;SDS011;9729;52.296;13.260;2023-02-28T03:03:00;12.73;;;7.10;;
19193;SDS011;9729;52.296;13.260;2023-02-28T03:05:28;15.93;;;7.00;;
19193;SDS011;9729;52.296;13.260;2023-02-28T03:07:59;11.40;;;6.13;;
19193;SDS011;9729;52.296;13.260;2023-02-28T03:10:28;12.63;;;6.80;;
19193;SDS011;9729;52.296;13.260;2023-02-28T03:13:06;14.47;;;7.27;;
19193;SDS011;9729;52.296;13.260;2023-02-28T03:15:43;9.97;;;6.07;;
19193;SDS011;9729;52.296;13.260;2023-02-28T03:18:19;13.00;;;6.30;;
19193;SDS011;9729;52.296;13.260;2023-02-28T03:20:52;14.13;;;6.67;;
19193;SDS011;9729;52.296;13.260;2023-02-28T03:23:26;14.90;;;6.77;;
19193;SDS011;9729;52.296;13.260;2023-02-28T03:25:59;11.70;;;6.20;;
19193;SDS011;9729;52.296;13.260;2023-02-28T03:28:30;17.03;;;7.17;;
19193;SDS011;9729;52.296;13.260;2023-02-28T03:30:59;12.93;;;6.70;;
19193;SDS011;9729;52.296;13.260;2023-02-28T03:33:30;17.67;;;7.60;;
19193;SDS011;9729;52.296;13.260;2023-02-28T03:35:59;11.20;;;6.53;;
19193;SDS011;9729;52.296;13.260;2023-02-28T03:38:29;15.57;;;6.97;;
19193;SDS011;9729;52.296;13.260;2023-02-28T03:41:00;14.77;;;6.40;;
19193;SDS011;9729;52.296;13.260;2023-02-28T03:43:31;13.93;;;7.37;;
19193;SDS011;9729;52.296;13.260;2023-02-28T03:46:01;13.53;;;7.07;;
19193;SDS011;9729;52.296;13.260;2023-02-28T03:48:32;18.97;;;7.43;;
19193;SDS011;9729;52.296;13.260;2023-02-28T03:51:01;11.07;;;6.50;;
19193;SDS011;9729;52.296;13.260;2023-02-28T03:53:31;13.93;;;6.50;;
19193;SDS011;9729;52.296;13.260;2023-02-28T03:56:00;19.23;;;6.60;;
19193;SDS011;9729;52.296;13.260;2023-02-28T03:58:30;14.40;;;7.40;;
19193;SDS011;9729;52.296;13.260;2023-02-28T04:01:02;15.63;;;6.53;;
19193;SDS011;9729;52.296;13.260;2023-02-28T04:03:33;12.90;;;6.60;;
19193;SDS011;9729;52.296;13.260;2023-02-28T04:06:00;10.07;;;6.63;;
19193;SDS011;9729;52.296;13.260;2023-02-28T04:08:26;13.27;;;7.20;;
19193;SDS011;9729;52.296;13.260;2023-02-28T04:10:56;19.37;;;6.60;;
19193;SDS011;9729;52.296;13.260;2023-02-28T04:13:25;13.10;;;6.67;;
19193;SDS011;9729;52.296;13.260;2023-02-28T04:15:51;14.50;;;6.17;;
19193;SDS011;9729;52.296;13.260;2023-02-28T04:18:17;12.40;;;7.53;;
19193;SDS011;9729;52.296;13.260;2023-02-28T04:20:44;9.67;;;6.53;;
19193;SDS011;9729;52.296;13.260;2023-02-28T04:23:10;16.03;;;7.13;;
19193;SDS011;9729;52.296;13.260;2023-02-28T04:25:36;11.50;;;7.13;;
19193;SDS011;9729;52.296;13.260;2023-02-28T04:28:06;13.00;;;7.23;;
19193;SDS011;9729;52.296;13.260;2023-02-28T04:30:33;11.60;;;6.63;;
19193;SDS011;9729;52.296;13.260;2023-02-28T04:32:59;16.80;;;6.87;;
19193;SDS011;9729;52.296;13.260;2023-02-28T04:35:25;12.97;;;7.20;;
19193;SDS011;9729;52.296;13.260;2023-02-28T04:37:52;11.27;;;7.20;;
19193;SDS011;9729;52.296;13.260;2023-02-28T04:40:18;16.33;;;7.87;;
19193;SDS011;9729;52.296;13.260;2023-02-28T04:42:44;18.47;;;7.43;;
19193;SDS011;9729;52.296;13.260;2023-02-28T04:45:12;12.33;;;6.10;;
19193;SDS011;9729;52.296;13.260;2023-02-28T04:47:38;12.63;;;7.67;;
19193;SDS011;9729;52.296;13.260;2023-02-28T04:50:05;13.43;;;7.17;;
19193;SDS011;9729;52.296;13.260;2023-02-28T04:52:34;12.20;;;6.70;;
19193;SDS011;9729;52.296;13.260;2023-02-28T04:55:00;13.10;;;6.33;;
19193;SDS011;9729;52.296;13.260;2023-02-28T04:57:26;13.17;;;7.67;;
19193;SDS011;9729;52.296;13.260;2023-02-28T04:59:53;11.13;;;6.67;;
19193;SDS011;9729;52.296;13.260;2023-02-28T05:02:20;15.77;;;7.90;;
19193;SDS011;9729;52.296;13.260;2023-02-28T05:04:48;16.70;;;7.10;;
19193;SDS011;9729;52.296;13.260;2023-02-28T05:07:14;10.70;;;7.07;;
19193;SDS011;9729;52.296;13.260;2023-02-28T05:09:41;12.93;;;7.47;;
19193;SDS011;9729;52.296;13.260;2023-02-28T05:12:08;12.73;;;7.00;;
19193;SDS011;9729;52.296;13.260;2023-02-28T05:14:34;11.00;;;6.77;;
19193;SDS011;9729;52.296;13.260;2023-02-28T05:17:01;13.13;;;7.30;;
19193;SDS011;9729;52.296;13.260;2023-02-28T05:19:29;10.93;;;6.80;;
19193;SDS011;9729;52.296;13.260;2023-02-28T05:21:55;14.80;;;6.83;;
19193;SDS011;9729;52.296;13.260;2023-02-28T05:24:21;12.73;;;6.93;;
19193;SDS011;9729;52.296;13.260;2023-02-28T05:26:49;14.10;;;6.77;;
19193;SDS011;9729;52.296;13.260;2023-02-28T05:29:17;13.37;;;6.97;;
19193;SDS011;9729;52.296;13.260;2023-02-28T05:31:44;10.23;;;6.50;;
19193;SDS011;9729;52.296;13.260;2023-02-28T05:34:10;9.53;;;6.57;;
19193;SDS011;9729;52.296;13.260;2023-02-28T05:36:38;12.70;;;6.90;;
19193;SDS011;9729;52.296;13.260;2023-02-28T05:39:05;10.83;;;6.63;;
19193;SDS011;9729;52.296;13.260;2023-02-28T05:41:32;14.47;;;6.70;;
19193;SDS011;9729;52.296;13.260;2023-02-28T05:43:58;11.20;;;7.57;;
19193;SDS011;9729;52.296;13.260;2023-02-28T05:46:32;10.70;;;6.50;;
19193;SDS011;9729;52.296;13.260;2023-02-28T05:48:58;11.30;;;6.63;;
19193;SDS011;9729;52.296;13.260;2023-02-28T05:51:25;10.33;;;6.73;;
19193;SDS011;9729;52.296;13.260;2023-02-28T05:53:53;17.50;;;7.07;;
19193;SDS011;9729;52.296;13.260;2023-02-28T05:56:19;14.53;;;7.40;;
19193;SDS011;9729;52.296;13.260;2023-02-28T05:58:46;15.60;;;6.87;;
19193;SDS011;9729;52.296;13.260;2023-02-28T06:01:20;14.67;;;8.03;;
19193;SDS011;9729;52.296;13.260;2023-02-28T06:03:48;11.53;;;6.83;;
19193;SDS011;9729;52.296;13.260;2023-02-28T06:06:14;16.37;;;7.73;;
19193;SDS011;9729;52.296;13.260;2023-02-28T06:08:40;15.47;;;7.03;;
19193;SDS011;9729;52.296;13.260;2023-02-28T06:11:09;16.63;;;6.60;;
19193;SDS011;9729;52.296;13.260;2023-02-28T06:13:36;17.27;;;9.17;;
19193;SDS011;9729;52.296;13.260;2023-02-28T06:16:02;15.33;;;7.53;;
19193;SDS011;9729;52.296;13.260;2023-02-28T06:18:29;12.03;;;7.27;;
19193;SDS011;9729;52.296;13.260;2023-02-28T06:20:58;15.20;;;8.00;;
19193;SDS011;9729;52.296;13.260;2023-02-28T06:23:26;10.67;;;6.80;;
19193;SDS011;9729;52.296;13.260;2023-02-28T06:25:53;11.50;;;7.23;;
19193;SDS011;9729;52.296;13.260;2023-02-28T06:28:24;13.30;;;6.97;;
19193;SDS011;9729;52.296;13.260;2023-02-28T06:30:51;12.90;;;7.37;;
19193;SDS011;9729;52.296;13.260;2023-02-28T06:33:17;11.57;;;7.80;;
19193;SDS011;9729;52.296;13.260;2023-02-28T06:35:44;15.07;;;7.77;;
19193;SDS011;9729;52.296;13.260;2023-02-28T06:38:11;10.70;;;7.10;;
19193;SDS011;9729;52.296;13.260;2023-02-28T06:40:37;13.20;;;7.97;;
19193;SDS011;9729;52.296;13.260;2023-02-28T06:43:04;21.27;;;8.23;;
19193;SDS011;9729;52.296;13.260;2023-02-28T06:45:33;14.63;;;7.67;;
19193;SDS011;9729;52.296;13.260;2023-02-28T06:47:59;17.70;;;9.07;;
19193;SDS011;9729;52.296;13.260;2023-02-28T06:50:25;16.53;;;8.67;;
19193;SDS011;9729;52.296;13.260;2023-02-28T06:52:54;10.97;;;7.57;;
19193;SDS011;9729;52.296;13.260;2023-02-28T06:55:20;12.57;;;7.23;;
19193;SDS011;9729;52.296;13.260;2023-02-28T06:57:49;16.80;;;8.53;;
19193;SDS011;9729;52.296;13.260;2023-02-28T07:00:16;16.00;;;8.50;;
19193;SDS011;9729;52.296;13.260;2023-02-28T07:02:44;21.13;;;8.63;;
19193;SDS011;9729;52.296;13.260;2023-02-28T07:05:10;16.47;;;9.53;;
19193;SDS011;9729;52.296;13.260;2023-02-28T07:07:37;18.40;;;9.83;;
19193;SDS011;9729;52.296;13.260;2023-02-28T07:10:05;15.37;;;10.50;;
19193;SDS011;9729;52.296;13.260;2023-02-28T07:12:32;17.57;;;10.00;;
19193;SDS011;9729;52.296;13.260;2023-02-28T07:14:59;16.73;;;9.53;;
19193;SDS011;9729;52.296;13.260;2023-02-28T07:17:25;19.30;;;9.97;;
19193;SDS011;9729;52.296;13.260;2023-02-28T07:19:53;20.07;;;10.63;;
19193;SDS011;9729;52.296;13.260;2023-02-28T07:22:19;15.13;;;9.37;;
19193;SDS011;9729;52.296;13.260;2023-02-28T07:24:46;20.30;;;10.47;;
19193;SDS011;9729;52.296;13.260;2023-02-28T07:27:13;15.40;;;9.70;;
19193;SDS011;9729;52.296;13.260;2023-02-28T07:29:48;14.80;;;8.83;;
19193;SDS011;9729;52.296;13.260;2023-02-28T07:32:15;13.90;;;9.60;;
19193;SDS011;9729;52.296;13.260;2023-02-28T07:34:41;14.77;;;8.17;;
19193;SDS011;9729;52.296;13.260;2023-02-28T07:37:09;15.57;;;8.47;;
19193;SDS011;9729;52.296;13.260;2023-02-28T07:39:35;13.70;;;7.40;;
19193;SDS011;9729;52.296;13.260;2023-02-28T07:42:03;16.50;;;6.90;;
19193;SDS011;9729;52.296;13.260;2023-02-28T07:44:32;14.03;;;6.57;;
19193;SDS011;9729;52.296;13.260;2023-02-28T07:46:58;10.63;;;6.83;;
19193;SDS011;9729;52.296;13.260;2023-02-28T07:49:24;10.73;;;6.37;;
19193;SDS011;9729;52.296;13.260;2023-02-28T07:51:53;11.60;;;6.53;;
19193;SDS011;9729;52.296;13.260;2023-02-28T07:54:20;9.13;;;6.27;;
19193;SDS011;9729;52.296;13.260;2023-02-28T07:56:47;8.97;;;5.47;;
19193;SDS011;9729;52.296;13.260;2023-02-28T07:59:13;9.33;;;5.53;;
19193;SDS011;9729;52.296;13.260;2023-02-28T08:01:40;9.43;;;5.83;;
19193;SDS011;9729;52.296;13.260;2023-02-28T08:04:07;13.37;;;5.90;;
19193;SDS011;9729;52.296;13.260;2023-02-28T08:06:33;10.03;;;5.57;;
19193;SDS011;9729;52.296;13.260;2023-02-28T08:09:00;15.47;;;5.30;;
19193;SDS011;9729;52.296;13.260;2023-02-28T08:11:27;8.60;;;5.23;;
19193;SDS011;9729;52.296;13.260;2023-02-28T08:13:54;13.63;;;5.30;;
19193;SDS011;9729;52.296;13.260;2023-02-28T08:16:21;13.77;;;5.47;;
19193;SDS011;9729;52.296;13.260;2023-02-28T08:18:48;7.77;;;4.30;;
19193;SDS011;9729;52.296;13.260;2023-02-28T08:21:15;8.53;;;4.00;;
19193;SDS011;9729;52.296;13.260;2023-02-28T08:23:41;6.80;;;3.30;;
19193;SDS011;9729;52.296;13.260;2023-02-28T08:26:08;11.60;;;4.80;;
19193;SDS011;9729;52.296;13.260;2023-02-28T08:28:36;7.97;;;4.17;;
19193;SDS011;9729;52.296;13.260;2023-02-28T08:31:06;7.87;;;3.60;;
19193;SDS011;9729;52.296;13.260;2023-02-28T08:33:33;7.30;;;4.20;;
19193;SDS011;9729;52.296;13.260;2023-02-28T08:36:00;19.50;;;8.13;;
19193;SDS011;9729;52.296;13.260;2023-02-28T08:38:26;10.30;;;5.13;;
19193;SDS011;9729;52.296;13.260;2023-02-28T08:40:56;6.80;;;4.43;;
19193;SDS011;9729;52.296;13.260;2023-02-28T08:43:23;7.87;;;4.27;;
19193;SDS011;9729;52.296;13.260;2023-02-28T08:45:52;9.80;;;4.33;;
19193;SDS011;9729;52.296;13.260;2023-02-28T08:48:19;4.83;;;3.70;;
19193;SDS011;9729;52.296;13.260;2023-02-28T08:50:54;8.50;;;4.17;;
19193;SDS011;9729;52.296;13.260;2023-02-28T08:53:21;6.37;;;3.60;;
19193;SDS011;9729;52.296;13.260;2023-02-28T08:55:54;8.33;;;4.10;;
19193;SDS011;9729;52.296;13.260;2023-02-28T08:58:22;10.10;;;4.97;;
19193;SDS011;9729;52.296;13.260;2023-02-28T09:00:48;4.83;;;3.13;;
19193;SDS011;9729;52.296;13.260;2023-02-28T09:03:16;7.80;;;4.20;;
19193;SDS011;9729;52.296;13.260;2023-02-28T09:05:51;9.37;;;4.33;;
19193;SDS011;9729;52.296;13.260;2023-02-28T09:08:17;14.20;;;4.10;;
19193;SDS011;9729;52.296;13.260;2023-02-28T09:10:44;10.80;;;3.17;;
19193;SDS011;9729;52.296;13.260;2023-02-28T09:13:10;26.53;;;9.17;;
19193;SDS011;9729;52.296;13.260;2023-02-28T09:15:36;10.40;;;4.17;;
19193;SDS011;9729;52.296;13.260;2023-02-28T09:18:03;11.77;;;3.70;;
19193;SDS011;9729;52.296;13.260;2023-02-28T09:20:31;6.27;;;3.07;;
19193;SDS011;9729;52.296;13.260;2023-02-28T09:22:57;6.07;;;3.53;;
19193;SDS011;9729;52.296;13.260;2023-02-28T09:25:23;6.90;;;3.20;;
19193;SDS011;9729;52.296;13.260;2023-02-28T09:27:50;6.17;;;3.57;;
19193;SDS011;9729;52.296;13.260;2023-02-28T09:30:16;8.53;;;4.20;;
19193;SDS011;9729;52.296;13.260;2023-02-28T09:32:43;9.10;;;4.03;;
19193;SDS011;9729;52.296;13.260;2023-02-28T09:35:16;8.50;;;4.27;;
19193;SDS011;9729;52.296;13.260;2023-02-28T09:37:44;11.63;;;4.30;;
19193;SDS011;9729;52.296;13.260;2023-02-28T09:40:11;6.10;;;3.87;;
19193;SDS011;9729;52.296;13.260;2023-02-28T09:42:39;6.30;;;4.27;;
19193;SDS011;9729;52.296;13.260;2023-02-28T09:45:07;9.90;;;4.23;;
19193;SDS011;9729;52.296;13.260;2023-02-28T09:47:47;7.37;;;3.87;;
19193;SDS011;9729;52.296;13.260;2023-02-28T09:50:17;4.73;;;3.03;;
19193;SDS011;9729;52.296;13.260;2023-02-28T09:52:49;5.80;;;3.33;;
19193;SDS011;9729;52.296;13.260;2023-02-28T09:55:19;8.03;;;2.50;;
19193;SDS011;9729;52.296;13.260;2023-02-28T09:57:47;5.37;;;3.57;;
19193;SDS011;9729;52.296;13.260;2023-02-28T10:00:17;7.13;;;2.90;;
19193;SDS011;9729;52.296;13.260;2023-02-28T10:05:31;4.00;;;2.20;;
19193;SDS011;9729;52.296;13.260;2023-02-28T10:08:02;5.80;;;2.83;;
19193;SDS011;9729;52.296;13.260;2023-02-28T10:10:34;8.37;;;2.90;;
19193;SDS011;9729;52.296;13.260;2023-02-28T10:13:05;4.40;;;3.10;;
19193;SDS011;9729;52.296;13.260;2023-02-28T10:15:33;3.53;;;2.20;;
19193;SDS011;9729;52.296;13.260;2023-02-28T10:18:01;5.03;;;2.60;;
19193;SDS011;9729;52.296;13.260;2023-02-28T10:20:29;4.67;;;2.77;;
19193;SDS011;9729;52.296;13.260;2023-02-28T10:23:00;5.40;;;2.90;;
19193;SDS011;9729;52.296;13.260;2023-02-28T10:25:32;5.67;;;2.57;;
19193;SDS011;9729;52.296;13.260;2023-02-28T10:28:01;7.07;;;2.40;;
19193;SDS011;9729;52.296;13.260;2023-02-28T10:30:30;4.23;;;2.20;;
19193;SDS011;9729;52.296;13.260;2023-02-28T10:32:58;5.20;;;2.30;;
19193;SDS011;9729;52.296;13.260;2023-02-28T10:35:25;4.83;;;2.23;;
19193;SDS011;9729;52.296;13.260;2023-02-28T10:37:53;4.50;;;2.60;;
19193;SDS011;9729;52.296;13.260;2023-02-28T10:40:32;4.77;;;2.27;;
19193;SDS011;9729;52.296;13.260;2023-02-28T10:43:01;4.90;;;2.87;;
19193;SDS011;9729;52.296;13.260;2023-02-28T10:45:29;3.83;;;2.27;;
19193;SDS011;9729;52.296;13.260;2023-02-28T10:47:59;4.77;;;2.33;;
19193;SDS011;9729;52.296;13.260;2023-02-28T10:50:29;5.10;;;2.03;;
19193;SDS011;9729;52.296;13.260;2023-02-28T10:53:05;6.73;;;2.50;;
19193;SDS011;9729;52.296;13.260;2023-02-28T10:55:43;3.27;;;2.10;;
19193;SDS011;9729;52.296;13.260;2023-02-28T10:58:20;5.33;;;2.60;;
19193;SDS011;9729;52.296;13.260;2023-02-28T11:00:47;3.60;;;1.90;;
19193;SDS011;9729;52.296;13.260;2023-02-28T11:03:22;7.47;;;2.50;;
19193;SDS011;9729;52.296;13.260;2023-02-28T11:05:50;3.97;;;1.80;;
19193;SDS011;9729;52.296;13.260;2023-02-28T11:08:17;5.37;;;2.43;;
19193;SDS011;9729;52.296;13.260;2023-02-28T11:10:46;3.60;;;2.57;;
19193;SDS011;9729;52.296;13.260;2023-02-28T11:13:16;5.30;;;2.80;;
19193;SDS011;9729;52.296;13.260;2023-02-28T11:15:46;5.33;;;2.43;;
19193;SDS011;9729;52.296;13.260;2023-02-28T11:18:21;3.00;;;2.40;;
19193;SDS011;9729;52.296;13.260;2023-02-28T11:20:50;7.13;;;2.43;;
19193;SDS011;9729;52.296;13.260;2023-02-28T11:23:19;4.47;;;2.53;;
19193;SDS011;9729;52.296;13.260;2023-02-28T11:25:48;3.30;;;2.43;;
19193;SDS011;9729;52.296;13.260;2023-02-28T11:28:25;4.03;;;2.80;;
19193;SDS011;9729;52.296;13.260;2023-02-28T11:31:00;5.03;;;2.77;;
19193;SDS011;9729;52.296;13.260;2023-02-28T11:33:29;4.47;;;2.70;;
19193;SDS011;9729;52.296;13.260;2023-02-28T11:35:57;4.20;;;2.40;;
19193;SDS011;9729;52.296;13.260;2023-02-28T11:38:26;4.90;;;2.10;;
19193;SDS011;9729;52.296;13.260;2023-02-28T11:40:59;5.13;;;2.20;;
19193;SDS011;9729;52.296;13.260;2023-02-28T11:43:35;4.73;;;2.00;;
19193;SDS011;9729;52.296;13.260;2023-02-28T11:46:12;3.63;;;1.97;;
19193;SDS011;9729;52.296;13.260;2023-02-28T11:48:48;3.93;;;2.07;;
19193;SDS011;9729;52.296;13.260;2023-02-28T11:51:21;3.60;;;2.23;;
19193;SDS011;9729;52.296;13.260;2023-02-28T11:53:50;5.73;;;2.07;;
19193;SDS011;9729;52.296;13.260;2023-02-28T11:56:25;4.70;;;1.90;;
19193;SDS011;9729;52.296;13.260;2023-02-28T11:58:59;4.23;;;2.00;;
19193;SDS011;9729;52.296;13.260;2023-02-28T12:01:38;3.40;;;2.03;;
19193;SDS011;9729;52.296;13.260;2023-02-28T12:04:17;4.40;;;2.40;;
19193;SDS011;9729;52.296;13.260;2023-02-28T12:06:52;4.00;;;2.17;;
19193;SDS011;9729;52.296;13.260;2023-02-28T12:09:28;3.07;;;1.90;;
19193;SDS011;9729;52.296;13.260;2023-02-28T12:12:05;6.10;;;2.43;;
19193;SDS011;9729;52.296;13.260;2023-02-28T12:14:44;3.73;;;2.20;;
19193;SDS011;9729;52.296;13.260;2023-02-28T12:17:19;4.77;;;2.70;;
19193;SDS011;9729;52.296;13.260;2023-02-28T12:19:52;5.33;;;2.20;;
19193;SDS011;9729;52.296;13.260;2023-02-28T12:22:28;7.13;;;2.50;;
19193;SDS011;9729;52.296;13.260;2023-02-28T12:25:02;6.03;;;2.63;;
19193;SDS011;9729;52.296;13.260;2023-02-28T12:28:03;4.27;;;2.60;;
19193;SDS011;9729;52.296;13.260;2023-02-28T12:30:31;3.63;;;2.33;;
19193;SDS011;9729;52.296;13.260;2023-02-28T12:33:01;3.93;;;2.23;;
19193;SDS011;9729;52.296;13.260;2023-02-28T12:35:32;7.33;;;2.53;;
19193;SDS011;9729;52.296;13.260;2023-02-28T12:38:02;6.53;;;2.47;;
19193;SDS011;9729;52.296;13.260;2023-02-28T12:40:32;4.97;;;2.27;;
19193;SDS011;9729;52.296;13.260;2023-02-28T12:43:05;4.93;;;2.10;;
19193;SDS011;9729;52.296;13.260;2023-02-28T12:45:37;4.57;;;2.30;;
19193;SDS011;9729;52.296;13.260;2023-02-28T12:48:07;2.97;;;2.20;;
19193;SDS011;9729;52.296;13.260;2023-02-28T12:50:36;8.00;;;2.27;;
19193;SDS011;9729;52.296;13.260;2023-02-28T12:53:03;5.70;;;2.17;;
19193;SDS011;9729;52.296;13.260;2023-02-28T12:55:33;5.70;;;2.80;;
19193;SDS011;9729;52.296;13.260;2023-02-28T12:58:08;4.30;;;2.37;;
19193;SDS011;9729;52.296;13.260;2023-02-28T13:00:42;6.40;;;2.90;;
19193;SDS011;9729;52.296;13.260;2023-02-28T13:03:38;3.97;;;2.23;;
19193;SDS011;9729;52.296;13.260;2023-02-28T13:06:37;4.00;;;2.60;;
19193;SDS011;9729;52.296;13.260;2023-02-28T13:09:12;5.23;;;2.90;;
19193;SDS011;9729;52.296;13.260;2023-02-28T13:11:41;5.90;;;2.73;;
19193;SDS011;9729;52.296;13.260;2023-02-28T13:14:22;5.07;;;2.27;;
19193;SDS011;9729;52.296;13.260;2023-02-28T13:16:54;4.70;;;2.67;;
19193;SDS011;9729;52.296;13.260;2023-02-28T13:19:23;5.60;;;2.43;;
19193;SDS011;9729;52.296;13.260;2023-02-28T13:21:51;4.93;;;3.00;;
19193;SDS011;9729;52.296;13.260;2023-02-28T13:27:20;4.20;;;2.30;;
19193;SDS011;9729;52.296;13.260;2023-02-28T13:29:51;3.50;;;2.17;;
19193;SDS011;9729;52.296;13.260;2023-02-28T13:32:19;2.67;;;2.20;;
19193;SDS011;9729;52.296;13.260;2023-02-28T13:35:13;5.97;;;2.60;;
19193;SDS011;9729;52.296;13.260;2023-02-28T13:37:41;6.47;;;2.70;;
19193;SDS011;9729;52.296;13.260;2023-02-28T13:40:28;5.67;;;2.60;;
19193;SDS011;9729;52.296;13.260;2023-02-28T13:43:02;5.43;;;2.97;;
19193;SDS011;9729;52.296;13.260;2023-02-28T13:45:30;5.53;;;3.43;;
19193;SDS011;9729;52.296;13.260;2023-02-28T13:48:03;7.83;;;3.27;;
19193;SDS011;9729;52.296;13.260;2023-02-28T13:50:31;5.87;;;2.83;;
19193;SDS011;9729;52.296;13.260;2023-02-28T13:55:57;6.60;;;2.90;;
19193;SDS011;9729;52.296;13.260;2023-02-28T13:58:39;5.97;;;2.73;;
19193;SDS011;9729;52.296;13.260;2023-02-28T14:01:12;5.20;;;2.73;;
19193;SDS011;9729;52.296;13.260;2023-02-28T14:03:46;7.30;;;3.10;;
19193;SDS011;9729;52.296;13.260;2023-02-28T14:06:23;4.27;;;2.20;;
19193;SDS011;9729;52.296;13.260;2023-02-28T14:08:52;5.20;;;2.60;;
19193;SDS011;9729;52.296;13.260;2023-02-28T14:11:29;6.30;;;3.20;;
19193;SDS011;9729;52.296;13.260;2023-02-28T14:13:57;10.93;;;3.10;;
19193;SDS011;9729;52.296;13.260;2023-02-28T14:16:25;5.07;;;2.67;;
19193;SDS011;9729;52.296;13.260;2023-02-28T14:18:55;5.73;;;2.57;;
19193;SDS011;9729;52.296;13.260;2023-02-28T14:21:25;5.70;;;2.80;;
19193;SDS011;9729;52.296;13.260;2023-02-28T14:24:21;4.30;;;2.60;;
19193;SDS011;9729;52.296;13.260;2023-02-28T14:27:05;5.43;;;3.13;;
19193;SDS011;9729;52.296;13.260;2023-02-28T14:29:52;6.23;;;2.80;;
19193;SDS011;9729;52.296;13.260;2023-02-28T14:32:43;5.63;;;3.13;;
19193;SDS011;9729;52.296;13.260;2023-02-28T14:35:19;7.10;;;3.33;;
19193;SDS011;9729;52.296;13.260;2023-02-28T14:37:53;4.50;;;2.97;;
19193;SDS011;9729;52.296;13.260;2023-02-28T14:40:21;5.00;;;2.57;;
19193;SDS011;9729;52.296;13.260;2023-02-28T14:42:54;4.93;;;2.63;;
19193;SDS011;9729;52.296;13.260;2023-02-28T14:45:26;4.57;;;2.80;;
19193;SDS011;9729;52.296;13.260;2023-02-28T14:47:54;6.07;;;3.33;;
19193;SDS011;9729;52.296;13.260;2023-02-28T14:50:23;10.60;;;3.57;;
19193;SDS011;9729;52.296;13.260;2023-02-28T14:53:00;5.13;;;2.67;;
19193;SDS011;9729;52.296;13.260;2023-02-28T14:55:27;6.70;;;2.80;;
19193;SDS011;9729;52.296;13.260;2023-02-28T14:57:55;9.00;;;3.07;;
19193;SDS011;9729;52.296;13.260;2023-02-28T15:00:23;7.27;;;3.10;;
19193;SDS011;9729;52.296;13.260;2023-02-28T15:02:52;6.13;;;3.10;;
19193;SDS011;9729;52.296;13.260;2023-02-28T15:05:21;7.37;;;3.10;;
19193;SDS011;9729;52.296;13.260;2023-02-28T15:08:00;6.30;;;2.90;;
19193;SDS011;9729;52.296;13.260;2023-02-28T15:10:27;8.20;;;3.50;;
19193;SDS011;9729;52.296;13.260;2023-02-28T15:12:56;4.33;;;2.70;;